Time;durP1;ratioP1;P1;durP2;ratioP2;P2;SDS_P1;SDS_P2;PMS_P1;PMS_P2;Temp;Humidity;BMP_temperature;BMP_pressure;BME280_temperature;BME280_humidity;BME280_pressure;Samples;Min_cycle;Max_cycle;Signal;HPM_P1;HPM_P2
2023/06/13 00:00:00;;;;;;;4.20;3.90;;;18.30;99.90;;;18.64;78.86;94496.44;5051934;28;20501;-59
2023/06/13 00:02:29;;;;;;;5.90;3.93;;;18.30;99.90;;;18.64;78.18;94493.75;5050649;28;20543;-58
2023/06/13 00:04:57;;;;;;;4.47;4.07;;;18.30;99.90;;;18.66;78.41;94492.75;5056253;28;20562;-58
2023/06/13 00:07:24;;;;;;;15.23;4.87;;;18.30;99.90;;;18.64;78.07;94501.75;5050300;28;20837;-58
2023/06/13 00:09:51;;;;;;;14.70;4.87;;;18.30;99.90;;;18.63;78.72;94492.09;5052696;28;20484;-57
2023/06/13 00:12:20;;;;;;;3.73;3.50;;;18.30;99.90;;;18.64;78.79;94487.63;5049882;28;20508;-58
2023/06/13 00:14:50;;;;;;;13.93;4.20;;;18.30;99.90;;;18.62;79.00;94487.81;5054087;28;20996;-59
2023/06/13 00:17:18;;;;;;;4.33;4.00;;;18.30;99.90;;;18.63;78.81;94483.31;5054753;28;20487;-57
2023/06/13 00:19:46;;;;;;;5.90;4.00;;;18.30;99.90;;;18.63;78.27;94475.31;5052543;28;20603;-58
2023/06/13 00:22:15;;;;;;;13.77;4.50;;;18.30;99.90;;;18.63;78.35;94476.13;5050430;28;20638;-58
2023/06/13 00:24:42;;;;;;;5.63;4.17;;;18.30;99.90;;;18.65;78.69;94470.59;5052931;28;20567;-58
2023/06/13 00:27:10;;;;;;;4.03;3.73;;;18.30;99.90;;;18.66;78.93;94468.78;5046643;28;20558;-58
2023/06/13 00:29:37;;;;;;;4.80;4.40;;;18.30;99.90;;;18.66;78.71;94471.44;5055750;28;20479;-58
2023/06/13 00:32:05;;;;;;;8.33;4.40;;;18.30;99.90;;;18.66;78.81;94472.25;5053462;28;20472;-58
2023/06/13 00:34:33;;;;;;;12.30;4.80;;;18.30;99.90;;;18.66;78.64;94469.59;5050737;28;21051;-58
2023/06/13 00:37:03;;;;;;;3.63;3.43;;;18.30;99.90;;;18.67;78.65;94478.41;5050355;28;20455;-59
2023/06/13 00:39:30;;;;;;;9.73;5.10;;;18.40;99.90;;;18.68;78.83;94478.19;5053793;28;20495;-58
2023/06/13 00:41:57;;;;;;;7.23;5.10;;;18.30;99.90;;;18.68;78.96;94475.53;5048011;28;20732;-58
2023/06/13 00:44:25;;;;;;;5.53;5.00;;;18.40;99.90;;;18.69;78.87;94476.38;5054890;28;20483;-58
2023/06/13 00:46:52;;;;;;;5.93;4.77;;;18.40;99.90;;;18.70;78.90;94467.34;5056679;28;20531;-58
2023/06/13 00:49:20;;;;;;;6.30;4.60;;;18.40;99.90;;;18.69;78.99;94466.53;5058224;28;20479;-57
2023/06/13 00:51:48;;;;;;;4.60;4.20;;;18.40;99.90;;;18.70;78.39;94470.00;5056999;28;20542;-60
2023/06/13 00:54:18;;;;;;;7.67;4.47;;;18.40;99.90;;;18.69;78.58;94466.53;5063622;28;20467;-59
2023/06/13 00:56:45;;;;;;;5.47;4.97;;;18.40;99.90;;;18.70;78.33;94470.00;5062854;28;20447;-59
2023/06/13 00:59:13;;;;;;;4.80;4.23;;;18.40;99.90;;;18.69;78.40;94465.72;5058297;28;20498;-58
2023/06/13 01:01:43;;;;;;;5.30;4.80;;;18.40;99.90;;;18.69;78.62;94469.19;5058668;28;20454;-59
2023/06/13 01:04:13;;;;;;;12.00;5.23;;;18.40;99.90;;;18.69;78.69;94468.38;5055718;28;20551;-59
2023/06/13 01:06:44;;;;;;;7.10;5.03;;;18.40;99.90;;;18.66;78.34;94461.59;5055285;28;20474;-60
2023/06/13 01:09:12;;;;;;;8.17;4.73;;;18.40;99.90;;;18.63;78.18;94462.00;5060638;28;20843;-61
2023/06/13 01:11:47;;;;;;;4.60;4.20;;;18.30;99.90;;;18.61;78.54;94459.53;5048784;28;20439;-59
2023/06/13 01:14:20;;;;;;;10.97;4.90;;;18.30;99.90;;;18.60;78.85;94463.22;5048990;28;20551;-59
2023/06/13 01:16:50;;;;;;;5.87;4.80;;;18.30;99.90;;;18.60;79.02;94462.41;5053686;28;20501;-59
2023/06/13 01:19:38;;;;;;;9.47;5.20;;;18.30;99.90;;;18.61;78.66;94464.06;5051820;28;20541;-59
2023/06/13 01:22:09;;;;;;;7.50;5.10;;;18.30;99.90;;;18.61;78.94;94466.72;5048423;28;20550;-60
2023/06/13 01:24:44;;;;;;;12.43;5.03;;;18.30;99.90;;;18.60;78.66;94463.22;5052398;28;20482;-60
2023/06/13 01:27:12;;;;;;;8.70;5.43;;;18.30;99.90;;;18.61;78.49;94464.88;5053664;28;20475;-58
2023/06/13 01:29:40;;;;;;;11.43;5.53;;;18.30;99.90;;;18.61;78.74;94469.38;5049652;28;20479;-58
2023/06/13 01:32:08;;;;;;;8.73;5.37;;;18.30;99.90;;;18.61;79.03;94470.19;5050179;28;21094;-59
2023/06/13 01:34:36;;;;;;;7.67;5.67;;;18.30;99.90;;;18.59;79.30;94472.25;5047282;28;20476;-59
2023/06/13 01:37:03;;;;;;;8.60;5.70;;;18.30;99.90;;;18.60;79.46;94476.53;5051059;28;20463;-58
2023/06/13 01:39:33;;;;;;;8.17;5.30;;;18.30;99.90;;;18.59;78.94;94477.56;5052644;28;20574;-58
2023/06/13 01:42:00;;;;;;;7.47;5.30;;;18.30;99.90;;;18.59;79.47;94472.25;5053229;28;20474;-59
2023/06/13 01:44:29;;;;;;;6.07;5.47;;;18.30;99.90;;;18.59;79.05;94466.06;5048371;28;20526;-59
2023/06/13 01:47:02;;;;;;;5.27;4.73;;;18.30;99.90;;;18.59;79.27;94466.06;5053471;28;20885;-59
2023/06/13 01:49:36;;;;;;;7.93;5.70;;;18.30;99.90;;;18.58;78.68;94469.78;5053862;28;20610;-59
2023/06/13 01:52:10;;;;;;;6.37;5.63;;;18.30;99.90;;;18.56;78.88;94467.31;5048780;28;20459;-57
2023/06/13 01:54:38;;;;;;;9.53;5.30;;;18.20;99.90;;;18.55;78.64;94465.66;5052528;28;20537;-58
2023/06/13 01:57:07;;;;;;;12.17;5.40;;;18.20;99.90;;;18.51;79.18;94464.41;5057500;28;20509;-58
2023/06/13 01:59:35;;;;;;;16.50;5.90;;;18.20;99.90;;;18.49;78.97;94465.63;5049668;28;20591;-58
2023/06/13 02:02:03;;;;;;;6.93;5.50;;;18.20;99.90;;;18.46;79.23;94466.84;5052923;28;20490;-59
2023/06/13 02:04:30;;;;;;;6.77;6.17;;;18.20;99.90;;;18.45;79.15;94459.88;5049542;28;20554;-58
2023/06/13 02:06:57;;;;;;;8.00;5.80;;;18.20;99.90;;;18.43;79.51;94464.59;5048842;28;20775;-58
2023/06/13 02:09:25;;;;;;;10.93;6.40;;;18.10;99.90;;;18.41;79.00;94470.09;5052886;28;20472;-58
2023/06/13 02:11:52;;;;;;;8.13;6.43;;;18.10;99.90;;;18.39;79.67;94460.69;5046801;28;20452;-60
2023/06/13 02:14:19;;;;;;;8.57;6.40;;;18.10;99.90;;;18.36;79.31;94461.09;5052576;28;20939;-57
2023/06/13 02:16:48;;;;;;;8.83;6.03;;;18.10;99.90;;;18.35;79.62;94459.44;5049830;28;21000;-58
2023/06/13 02:19:15;;;;;;;11.90;6.20;;;18.10;99.90;;;18.34;79.35;94463.09;5045958;28;20495;-57
2023/06/13 02:21:46;;;;;;;9.03;6.20;;;18.10;99.90;;;18.34;79.51;94457.78;5049377;28;20813;-58
2023/06/13 02:24:14;;;;;;;16.83;6.50;;;18.00;99.90;;;18.32;79.40;94460.63;5054097;28;20494;-58
2023/06/13 02:26:42;;;;;;;15.87;6.20;;;18.00;99.90;;;18.31;79.40;94458.19;5051542;28;20525;-58
2023/06/13 02:29:09;;;;;;;25.47;6.47;;;18.00;99.90;;;18.32;79.92;94457.16;5053835;28;20825;-58
2023/06/13 02:31:38;;;;;;;14.23;6.50;;;18.00;99.90;;;18.30;79.59;94464.53;5047799;28;20460;-58
2023/06/13 02:34:06;;;;;;;9.50;6.40;;;18.00;99.90;;;18.29;79.98;94453.06;5053231;28;21217;-59
2023/06/13 02:36:33;;;;;;;9.30;6.97;;;18.00;99.90;;;18.28;79.95;94468.22;5053671;28;20455;-58
2023/06/13 02:39:02;;;;;;;9.00;6.90;;;18.00;99.90;;;18.28;80.13;94467.41;5049159;28;20481;-59
2023/06/13 02:41:30;;;;;;;18.63;6.77;;;18.00;99.90;;;18.28;79.49;94475.38;5052362;28;20479;-58
2023/06/13 02:43:57;;;;;;;14.27;7.10;;;18.00;99.90;;;18.27;79.63;94471.88;5050207;28;20898;-59
2023/06/13 02:46:24;;;;;;;17.73;6.37;;;18.00;99.90;;;18.28;80.16;94475.38;5052763;28;20456;-58
2023/06/13 02:48:51;;;;;;;7.30;6.70;;;18.00;99.90;;;18.28;80.00;94476.19;5050606;28;20565;-57
2023/06/13 02:51:20;;;;;;;8.60;7.10;;;18.00;99.90;;;18.28;80.06;94468.22;5049924;28;20456;-58
2023/06/13 02:53:48;;;;;;;14.03;6.90;;;18.00;99.90;;;18.27;80.04;94471.88;5054098;28;20493;-58
2023/06/13 02:56:15;;;;;;;14.83;7.27;;;18.00;99.90;;;18.28;79.90;94475.38;5052538;28;20447;-59
2023/06/13 02:58:42;;;;;;;15.83;8.23;;;18.00;99.90;;;18.27;79.87;94474.53;5054898;28;20459;-57
2023/06/13 03:01:09;;;;;;;19.90;7.27;;;18.00;99.90;;;18.27;80.04;94479.88;5046660;28;20498;-58
2023/06/13 03:03:37;;;;;;;15.20;6.87;;;18.00;99.90;;;18.27;79.61;94477.22;5051725;28;20491;-59
2023/06/13 03:06:04;;;;;;;7.77;7.10;;;18.00;99.90;;;18.26;80.45;94483.56;5046787;28;20494;-58
2023/06/13 03:08:33;;;;;;;16.50;7.83;;;18.00;99.90;;;18.28;80.40;94480.72;5051501;28;20550;-59
2023/06/13 03:11:00;;;;;;;13.77;7.43;;;18.00;99.90;;;18.28;80.42;94478.88;5048368;28;20905;-58
2023/06/13 03:13:28;;;;;;;7.97;7.17;;;18.00;99.90;;;18.29;80.37;94490.31;5048341;28;20455;-59
2023/06/13 03:15:56;;;;;;;10.83;6.97;;;18.00;99.90;;;18.30;80.52;94493.81;5049867;28;20464;-59
2023/06/13 03:18:24;;;;;;;18.03;7.90;;;18.00;99.90;;;18.31;80.07;94498.13;5051334;28;20452;-58
2023/06/13 03:20:52;;;;;;;13.43;7.23;;;18.00;99.90;;;18.34;80.47;94489.72;5050918;28;20502;-60
2023/06/13 03:23:19;;;;;;;17.47;6.80;;;18.00;99.90;;;18.35;80.56;94486.06;5046711;28;20455;-59
2023/06/13 03:25:48;;;;;;;14.83;7.13;;;18.10;99.90;;;18.36;80.37;94487.72;5051376;28;20565;-58
2023/06/13 03:28:15;;;;;;;15.60;7.67;;;18.10;99.90;;;18.37;80.59;94492.84;5046701;28;20456;-59
2023/06/13 03:30:42;;;;;;;11.63;8.33;;;18.10;99.90;;;18.40;80.68;94486.28;5052231;28;20528;-59
2023/06/13 03:33:11;;;;;;;8.37;7.57;;;18.10;99.90;;;18.42;80.17;94487.75;5049554;28;20452;-60
2023/06/13 03:35:40;;;;;;;8.20;6.93;;;18.10;99.90;;;18.43;80.52;94480.56;5048847;28;20582;-58
2023/06/13 03:38:07;;;;;;;14.03;8.93;;;18.10;99.90;;;18.46;80.09;94488.16;5055459;28;20548;-58
2023/06/13 03:40:34;;;;;;;10.10;7.60;;;18.10;99.90;;;18.48;80.29;94486.09;5051127;28;20498;-59
2023/06/13 03:43:03;;;;;;;17.30;7.70;;;18.20;99.90;;;18.49;80.26;94479.75;5047989;28;20467;-58
2023/06/13 03:45:30;;;;;;;9.53;7.53;;;18.20;99.90;;;18.51;80.10;94490.22;5050806;28;20934;-60
2023/06/13 03:47:57;;;;;;;8.50;7.70;;;18.20;99.90;;;18.51;79.80;94491.03;5051551;28;20456;-58
2023/06/13 03:50:25;;;;;;;23.07;8.60;;;18.20;99.90;;;18.51;79.45;94485.72;5055554;28;20539;-59
2023/06/13 03:52:52;;;;;;;16.20;7.90;;;18.20;99.90;;;18.53;79.47;94493.50;5052838;28;20459;-58
2023/06/13 03:55:19;;;;;;;11.17;9.07;;;18.20;99.90;;;18.53;79.38;94499.66;5052022;28;20984;-59
2023/06/13 03:57:46;;;;;;;10.90;8.30;;;18.20;99.90;;;18.53;79.93;94501.50;5052375;28;20537;-59
2023/06/13 04:00:17;;;;;;;12.50;8.70;;;18.20;99.90;;;18.53;79.73;94494.34;5050486;28;20503;-60
2023/06/13 04:02:45;;;;;;;15.93;9.13;;;18.30;99.90;;;18.53;79.78;94497.00;5054636;28;20468;-58
2023/06/13 04:05:13;;;;;;;10.03;9.03;;;18.20;99.90;;;18.56;79.66;94493.94;5051017;28;20475;-59
2023/06/13 04:07:42;;;;;;;12.67;8.83;;;18.30;99.90;;;18.61;80.46;94509.34;5055044;28;21165;-59
2023/06/13 04:10:10;;;;;;;9.97;9.00;;;18.30;99.90;;;18.64;79.87;94499.09;5052951;28;20491;-59
2023/06/13 04:12:37;;;;;;;15.57;9.03;;;18.30;99.90;;;18.71;79.94;94506.28;5052211;28;20459;-60
2023/06/13 04:15:06;;;;;;;18.37;9.80;;;18.40;99.90;;;18.77;80.18;94505.50;5049558;28;21093;-60
2023/06/13 04:17:36;;;;;;;12.30;11.00;;;18.40;99.90;;;18.83;79.81;94509.22;5054655;28;20516;-59
2023/06/13 04:20:05;;;;;;;16.33;10.63;;;18.50;99.90;;;18.87;79.27;94508.66;5051115;28;20564;-59
2023/06/13 04:22:33;;;;;;;16.17;10.97;;;18.60;99.90;;;18.93;79.44;94515.84;5053435;28;21060;-58
2023/06/13 04:25:00;;;;;;;16.40;11.60;;;18.60;99.90;;;18.95;79.08;94511.13;5048596;28;20483;-59
2023/06/13 04:27:28;;;;;;;11.73;10.60;;;18.60;99.90;;;19.01;79.09;94511.34;5050383;28;20467;-61
2023/06/13 04:29:56;;;;;;;16.57;12.97;;;18.70;99.90;;;19.05;78.41;94517.91;5054603;28;20468;-60
2023/06/13 04:32:27;;;;;;;13.90;10.93;;;18.70;99.90;;;19.04;78.19;94517.09;5051622;28;20509;-60
2023/06/13 04:34:58;;;;;;;16.57;12.23;;;18.70;99.90;;;19.03;77.54;94517.31;5056593;28;20463;-59
2023/06/13 04:37:25;;;;;;;18.27;11.23;;;18.70;99.90;;;19.00;77.54;94518.50;5051667;28;20811;-59
2023/06/13 04:39:52;;;;;;;17.77;14.03;;;18.70;99.90;;;19.01;78.33;94524.66;5051087;28;20501;-59
2023/06/13 04:42:24;;;;;;;16.77;13.50;;;18.70;99.90;;;19.01;77.67;94525.50;5056957;28;20469;-59
2023/06/13 04:44:53;;;;;;;22.27;15.10;;;18.70;99.90;;;19.04;78.19;94529.59;5053048;28;20459;-58
2023/06/13 04:47:21;;;;;;;20.97;15.87;;;18.70;99.90;;;19.03;77.54;94523.44;5051594;28;20462;-58
2023/06/13 04:49:48;;;;;;;17.40;14.73;;;18.70;99.90;;;19.03;77.86;94526.13;5050196;28;20567;-57
2023/06/13 04:52:18;;;;;;;26.47;14.70;;;18.80;99.90;;;19.03;77.64;94519.97;5053509;28;20456;-58
2023/06/13 04:54:45;;;;;;;19.80;15.00;;;18.70;99.90;;;19.08;77.19;94528.19;5054426;28;20459;-58
2023/06/13 04:57:13;;;;;;;19.40;14.87;;;18.70;99.90;;;19.10;77.41;94529.63;5057607;28;20537;-59
2023/06/13 04:59:41;;;;;;;18.30;15.00;;;18.80;99.90;;;19.14;77.81;94524.72;5055413;28;20971;-58
2023/06/13 05:02:08;;;;;;;30.00;16.90;;;18.80;99.90;;;19.19;76.82;94532.09;5048808;28;20475;-58
2023/06/13 05:04:36;;;;;;;25.37;16.20;;;18.80;99.90;;;19.26;77.02;94540.94;5054966;28;20540;-60
2023/06/13 05:07:06;;;;;;;21.40;17.97;;;18.90;99.90;;;19.32;77.03;94530.28;5050018;28;21018;-59
2023/06/13 05:09:34;;;;;;;34.47;18.20;;;19.00;99.90;;;19.41;76.83;94536.25;5052636;28;20471;-59
2023/06/13 05:12:02;;;;;;;21.27;16.07;;;19.10;99.90;;;19.49;76.68;94535.25;5050334;28;20510;-58
2023/06/13 05:14:29;;;;;;;26.90;16.87;;;19.20;99.90;;;19.58;76.04;94541.19;5054121;28;20463;-59
2023/06/13 05:16:57;;;;;;;22.57;15.93;;;19.20;99.90;;;19.65;76.31;94534.84;5054112;28;20491;-58
2023/06/13 05:19:24;;;;;;;20.80;16.30;;;19.30;99.90;;;19.75;76.17;94537.13;5051050;28;20505;-58
2023/06/13 05:21:51;;;;;;;19.00;14.20;;;19.40;99.90;;;19.83;75.79;94534.25;5052391;28;20586;-60
2023/06/13 05:24:18;;;;;;;24.10;14.83;;;19.50;99.90;;;19.97;75.73;94528.91;5055276;28;20484;-58
2023/06/13 05:26:47;;;;;;;25.13;14.70;;;19.60;99.90;;;20.09;75.41;94531.78;5049860;28;20825;-57
2023/06/13 05:29:14;;;;;;;24.20;14.30;;;19.70;99.90;;;20.18;74.74;94527.88;5055938;28;20471;-58
2023/06/13 05:31:42;;;;;;;17.80;13.30;;;19.80;99.90;;;20.27;74.41;94534.63;5050930;28;20452;-58
2023/06/13 05:34:09;;;;;;;15.57;12.80;;;19.90;99.90;;;20.37;74.26;94537.69;5048806;28;20532;-58
2023/06/13 05:36:36;;;;;;;16.37;12.83;;;20.00;99.90;;;20.47;73.93;94531.09;5053615;28;20555;-59
2023/06/13 05:39:03;;;;;;;14.10;12.60;;;20.10;99.90;;;20.53;72.60;94528.41;5051736;28;20483;-59
2023/06/13 05:41:32;;;;;;;18.13;11.90;;;20.10;99.90;;;20.62;72.88;94536.19;5053127;28;20544;-58
2023/06/13 05:44:01;;;;;;;17.53;10.33;;;20.20;99.90;;;20.69;72.42;94537.84;5052422;28;20471;-60
2023/06/13 05:46:28;;;;;;;15.73;10.83;;;20.30;99.90;;;20.74;71.95;94540.72;5049093;28;20627;-59
2023/06/13 05:48:56;;;;;;;12.83;11.53;;;20.40;99.90;;;20.82;71.23;94530.81;5052171;28;21090;-59
2023/06/13 05:51:23;;;;;;;15.47;10.60;;;20.40;99.90;;;20.92;71.72;94540.00;5051694;28;20505;-58
2023/06/13 05:53:50;;;;;;;16.43;9.03;;;20.50;99.90;;;21.06;71.03;94539.97;5054741;28;20552;-58
2023/06/13 05:56:17;;;;;;;17.43;8.60;;;20.60;99.90;;;21.17;70.78;94549.16;5053755;28;20447;-58
2023/06/13 05:58:44;;;;;;;8.73;6.77;;;20.70;99.90;;;21.27;70.01;94554.84;5052712;28;20452;-58
2023/06/13 06:01:13;;;;;;;8.50;6.07;;;20.80;99.90;;;21.37;69.48;94549.88;5049939;28;20491;-58
2023/06/13 06:03:40;;;;;;;6.77;6.27;;;20.90;99.90;;;21.44;69.20;94548.00;5051057;28;20536;-59
2023/06/13 06:06:08;;;;;;;6.90;6.30;;;21.00;99.90;;;21.48;69.03;94543.81;5049680;28;20456;-59
2023/06/13 06:08:35;;;;;;;7.80;6.50;;;21.10;99.90;;;21.52;68.49;94544.25;5051770;28;20451;-58
2023/06/13 06:11:02;;;;;;;6.43;5.93;;;21.10;99.90;;;21.59;68.10;94538.84;5049557;28;20963;-59
2023/06/13 06:13:29;;;;;;;6.60;5.43;;;21.20;99.90;;;21.67;67.72;94527.88;5054081;28;20867;-58
2023/06/13 06:15:56;;;;;;;6.70;6.00;;;21.30;99.90;;;21.82;67.38;94539.09;5049803;28;20501;-57
2023/06/13 06:18:25;;;;;;;8.83;5.20;;;21.30;99.90;;;22.01;66.79;94536.47;5052816;28;20463;-59
2023/06/13 06:20:52;;;;;;;8.23;6.80;;;21.50;99.90;;;22.17;66.60;94535.13;5049222;28;20511;-59
2023/06/13 06:23:19;;;;;;;10.87;6.47;;;21.70;99.90;;;22.31;66.27;94535.84;5047320;28;20822;-59
2023/06/13 06:25:47;;;;;;;6.40;5.90;;;21.80;99.90;;;22.41;65.47;94546.03;5052540;28;20478;-59
2023/06/13 06:28:14;;;;;;;6.87;6.30;;;21.90;99.90;;;22.42;65.13;94542.31;5050310;28;20455;-58
2023/06/13 06:30:41;;;;;;;14.37;6.20;;;22.00;99.90;;;22.40;64.80;94539.84;5052354;28;20501;-57
2023/06/13 06:33:09;;;;;;;12.00;7.57;;;22.00;99.90;;;22.32;64.52;94535.63;5046364;28;20870;-58
2023/06/13 06:35:37;;;;;;;7.70;6.60;;;22.00;99.90;;;22.22;64.98;94543.31;5054648;28;20546;-57
2023/06/13 06:38:04;;;;;;;10.47;8.10;;;21.90;99.90;;;22.13;64.79;94544.63;5049926;28;20459;-59
2023/06/13 06:40:32;;;;;;;14.93;11.30;;;21.80;99.90;;;22.10;65.48;94535.16;5054164;28;20495;-59
2023/06/13 06:42:59;;;;;;;23.17;11.80;;;21.70;99.90;;;22.12;65.59;94526.91;5049405;28;20517;-59
2023/06/13 06:45:26;;;;;;;13.90;11.50;;;21.70;99.90;;;22.15;66.15;94538.03;5054360;28;20703;-59
2023/06/13 06:47:53;;;;;;;30.07;12.03;;;21.80;99.90;;;22.22;66.06;94537.13;5051869;28;20547;-58
2023/06/13 06:50:20;;;;;;;14.23;10.70;;;21.80;99.90;;;22.25;65.60;94540.19;5054127;28;20475;-58
2023/06/13 06:52:49;;;;;;;18.43;11.13;;;21.80;99.90;;;22.33;66.02;94533.75;5048393;28;20453;-58
2023/06/13 06:55:16;;;;;;;15.37;12.10;;;21.90;99.90;;;22.45;65.26;94534.66;5054722;28;21011;-59
2023/06/13 06:57:44;;;;;;;13.47;10.23;;;22.00;99.90;;;22.60;65.15;94538.84;5055768;28;20452;-60
2023/06/13 07:00:14;;;;;;;11.30;10.07;;;22.10;99.90;;;22.77;65.19;94542.56;5050455;28;20475;-59
2023/06/13 07:02:41;;;;;;;10.23;9.20;;;22.30;99.90;;;22.95;65.08;94552.47;5050941;28;20448;-60
2023/06/13 07:05:09;;;;;;;11.67;10.47;;;22.40;99.90;;;23.08;63.99;94544.28;5047921;28;20532;-59
2023/06/13 07:07:37;;;;;;;11.23;9.37;;;22.60;99.90;;;23.22;64.33;94530.69;5050709;28;20463;-58
2023/06/13 07:10:07;;;;;;;14.27;9.97;;;22.70;99.90;;;23.33;63.55;94537.97;5051255;28;20569;-59
2023/06/13 07:12:34;;;;;;;12.77;9.40;;;22.80;99.90;;;23.40;63.30;94543.25;5048762;28;20443;-58
2023/06/13 07:15:01;;;;;;;13.30;9.33;;;22.90;99.90;;;23.37;62.46;94533.78;5053330;28;20533;-59
2023/06/13 07:17:30;;;;;;;12.17;9.83;;;22.90;99.90;;;23.36;62.31;94532.16;5048094;28;21065;-58
2023/06/13 07:19:57;;;;;;;14.07;9.17;;;22.90;99.90;;;23.34;61.63;94528.88;5054783;28;20552;-59
2023/06/13 07:22:25;;;;;;;11.90;8.70;;;22.90;99.90;;;23.41;62.40;94528.78;5051026;28;20490;-58
2023/06/13 07:24:52;;;;;;;15.80;9.77;;;22.90;99.90;;;23.55;62.26;94535.59;5056886;28;20528;-59
2023/06/13 07:27:20;;;;;;;12.60;9.17;;;23.00;99.90;;;23.69;62.05;94530.84;5052865;28;20447;-57
2023/06/13 07:29:48;;;;;;;15.87;9.00;;;23.20;99.90;;;23.83;61.98;94528.78;5056138;28;20471;-58
2023/06/13 07:32:15;;;;;;;10.80;8.30;;;23.30;99.90;;;23.94;60.97;94525.31;5052773;28;20531;-59
2023/06/13 07:34:42;;;;;;;14.17;8.60;;;23.50;99.90;;;24.03;61.57;94520.44;5054968;28;20488;-58
2023/06/13 07:37:10;;;;;;;11.33;9.47;;;23.60;99.90;;;24.11;60.55;94519.28;5054334;28;20450;-58
2023/06/13 07:39:37;;;;;;;13.17;8.77;;;23.70;99.90;;;24.16;60.17;94524.75;5053635;28;20482;-58
2023/06/13 07:42:06;;;;;;;9.63;8.63;;;23.70;99.90;;;24.18;60.12;94519.97;5054629;28;20493;-59
2023/06/13 07:44:35;;;;;;;9.70;8.60;;;23.80;99.90;;;24.23;60.64;94521.94;5053356;28;20548;-58
2023/06/13 07:47:02;;;;;;;9.30;8.50;;;23.80;99.90;;;24.25;59.50;94520.66;5056567;28;20447;-57
2023/06/13 07:49:30;;;;;;;9.80;8.90;;;23.80;99.90;;;24.22;59.69;94518.44;5055612;28;20527;-57
2023/06/13 07:51:58;;;;;;;13.83;9.77;;;23.80;99.90;;;24.23;59.39;94520.09;5055355;28;20823;-58
2023/06/13 07:54:25;;;;;;;10.33;8.60;;;23.80;99.90;;;24.22;59.90;94523.81;5051690;28;20467;-57
2023/06/13 07:56:52;;;;;;;10.73;9.10;;;23.80;99.90;;;24.22;60.07;94523.81;5061519;28;20485;-58
2023/06/13 07:59:20;;;;;;;10.20;9.30;;;23.80;99.90;;;24.21;59.30;94522.19;5050627;28;20475;-58
2023/06/13 08:01:48;;;;;;;12.60;9.80;;;23.80;99.90;;;24.20;60.28;94517.88;5056726;28;20493;-58
2023/06/13 08:04:15;;;;;;;16.57;10.00;;;23.80;99.90;;;24.20;59.04;94525.09;5052684;28;20633;-57
2023/06/13 08:06:43;;;;;;;13.10;9.57;;;23.80;99.90;;;24.16;59.94;94522.06;5056387;28;20462;-58
2023/06/13 08:09:11;;;;;;;14.33;9.30;;;23.80;99.90;;;24.16;60.03;94519.38;5052757;28;20483;-59
2023/06/13 08:11:38;;;;;;;16.43;10.23;;;23.80;99.90;;;24.19;59.46;94518.09;5055693;28;20451;-61
2023/06/13 08:14:07;;;;;;;11.00;10.00;;;23.80;99.90;;;24.21;59.62;94516.81;5051942;28;20475;-59
2023/06/13 08:16:35;;;;;;;12.67;9.10;;;23.80;99.90;;;24.25;58.94;94515.28;5055740;28;20489;-56
2023/06/13 08:19:04;;;;;;;13.60;10.37;;;23.80;99.90;;;24.27;58.14;94515.88;5051993;28;20564;-58
2023/06/13 08:21:31;;;;;;;18.63;9.80;;;23.90;99.90;;;24.28;58.97;94511.31;5054577;28;20513;-59
2023/06/13 08:24:00;;;;;;;16.10;11.07;;;23.90;99.90;;;24.33;58.66;94517.63;5054520;28;20471;-58
2023/06/13 08:26:32;;;;;;;11.83;10.63;;;23.90;99.90;;;24.44;58.29;94515.97;5051349;28;20490;-60
2023/06/13 08:29:00;;;;;;;11.77;10.53;;;24.00;99.90;;;24.56;58.59;94510.59;5052219;28;21109;-58
2023/06/13 08:31:27;;;;;;;16.43;10.73;;;24.10;99.90;;;24.69;58.58;94507.69;5057074;28;21009;-58
2023/06/13 08:33:55;;;;;;;12.97;9.43;;;24.20;99.90;;;24.88;58.44;94502.16;5048549;28;20529;-58
2023/06/13 08:36:24;;;;;;;12.67;10.53;;;24.40;99.90;;;25.10;58.06;94501.47;5053203;28;20550;-58
2023/06/13 08:38:52;;;;;;;11.00;10.00;;;24.60;99.90;;;25.29;57.41;94511.03;5052196;28;20466;-58
2023/06/13 08:41:20;;;;;;;10.30;9.20;;;24.80;99.80;;;25.45;56.60;94503.25;5055123;28;20525;-59
2023/06/13 08:43:47;;;;;;;11.87;9.70;;;24.90;99.20;;;25.56;56.29;94499.66;5047183;28;21083;-59
2023/06/13 08:46:14;;;;;;;15.27;10.43;;;25.10;98.80;;;25.66;56.43;94494.47;5046810;28;20452;-57
2023/06/13 08:48:42;;;;;;;12.00;9.73;;;25.20;98.80;;;25.76;55.79;94502.72;5052309;28;21097;-59
2023/06/13 08:51:13;;;;;;;16.00;11.03;;;25.30;98.80;;;25.84;55.22;94495.28;5052185;28;20458;-59
2023/06/13 08:53:45;;;;;;;13.10;10.77;;;25.40;98.10;;;25.86;55.16;94498.56;5056011;28;20828;-57
2023/06/13 08:56:12;;;;;;;13.33;11.47;;;25.40;97.90;;;25.89;55.24;94503.47;5055540;28;20439;-59
2023/06/13 08:58:40;;;;;;;12.33;11.00;;;25.40;97.60;;;25.85;54.81;94505.81;5056807;28;20886;-59
2023/06/13 09:01:07;;;;;;;15.33;12.00;;;25.40;97.20;;;25.76;54.57;94499.19;5049896;28;20491;-57
2023/06/13 09:03:35;;;;;;;21.17;12.23;;;25.40;97.10;;;25.66;54.81;94504.44;5049140;28;20516;-58
2023/06/13 09:06:04;;;;;;;15.40;11.93;;;25.30;96.90;;;25.56;54.81;94510.44;5049689;28;20844;-58
2023/06/13 09:08:31;;;;;;;14.70;11.83;;;25.20;96.90;;;25.46;54.89;94499.50;5054686;28;20525;-58
2023/06/13 09:11:00;;;;;;;23.43;14.10;;;25.10;97.00;;;25.37;55.59;94509.84;5051283;28;20455;-59
2023/06/13 09:13:27;;;;;;;14.70;10.50;;;25.00;97.20;;;25.28;55.64;94514.75;5051219;28;20521;-58
2023/06/13 09:15:54;;;;;;;7.87;6.00;;;24.90;97.20;;;25.19;55.33;94508.09;5052045;28;20454;-58
2023/06/13 09:18:21;;;;;;;6.33;5.13;;;24.80;97.30;;;25.08;55.93;94511.66;5053841;28;20537;-57
2023/06/13 09:20:48;;;;;;;6.20;4.70;;;24.70;97.20;;;24.91;55.67;94509.75;5052514;28;20501;-59
2023/06/13 09:23:16;;;;;;;9.17;4.30;;;24.60;97.40;;;24.73;55.89;94509.91;5049566;28;20487;-58
2023/06/13 09:25:45;;;;;;;4.67;4.27;;;24.40;97.30;;;24.55;56.38;94511.63;5051943;28;20546;-57
2023/06/13 09:28:31;;;;;;;4.43;4.10;;;24.20;97.40;;;24.34;55.94;94508.50;5049824;28;20448;-59
2023/06/13 09:30:58;;;;;;;4.90;4.60;;;24.00;97.30;;;24.12;56.90;94507.44;5055635;28;20448;-58
2023/06/13 09:33:26;;;;;;;4.47;4.10;;;23.90;97.70;;;23.95;57.07;94513.53;5048509;28;20817;-58
2023/06/13 09:35:53;;;;;;;5.17;4.57;;;23.70;97.90;;;23.77;57.08;94506.34;5055096;28;21020;-59
2023/06/13 09:38:23;;;;;;;4.30;3.70;;;23.50;98.00;;;23.61;57.25;94513.22;5050874;28;20458;-57
2023/06/13 09:40:54;;;;;;;5.27;4.73;;;23.30;98.20;;;23.42;57.80;94514.31;5053550;28;20472;-58
2023/06/13 09:43:21;;;;;;;7.57;4.73;;;23.10;98.10;;;23.29;58.08;94511.84;5051446;28;20479;-57
2023/06/13 09:45:51;;;;;;;4.57;4.10;;;22.90;98.50;;;23.20;58.49;94517.50;5052428;28;20586;-59
2023/06/13 09:48:19;;;;;;;4.30;3.90;;;22.90;98.90;;;23.10;58.99;94517.25;5050457;28;20466;-59
2023/06/13 09:50:46;;;;;;;13.40;4.37;;;22.80;99.00;;;23.02;58.75;94509.44;5053954;28;20471;-58
2023/06/13 09:53:13;;;;;;;4.63;4.33;;;22.70;99.20;;;22.94;59.18;94521.31;5052585;28;20473;-58
2023/06/13 09:55:41;;;;;;;7.10;4.10;;;22.60;99.30;;;22.85;59.78;94515.44;5052041;28;20467;-59
2023/06/13 09:58:08;;;;;;;7.33;4.43;;;22.60;99.50;;;22.77;59.51;94517.59;5050655;28;20478;-57
2023/06/13 10:00:35;;;;;;;4.80;4.50;;;22.50;99.60;;;22.70;59.94;94506.97;5048987;28;20471;-58
2023/06/13 10:03:05;;;;;;;8.83;5.07;;;22.40;99.70;;;22.66;60.38;94513.81;5053555;28;20541;-58
2023/06/13 10:05:32;;;;;;;4.77;4.37;;;22.40;99.90;;;22.61;60.14;94519.84;5049068;28;20468;-58
2023/06/13 10:07:59;;;;;;;5.60;5.07;;;22.30;99.90;;;22.57;61.22;94526.69;5054007;28;20463;-57
2023/06/13 10:10:26;;;;;;;11.67;6.03;;;22.20;99.90;;;22.50;61.89;94512.56;5052902;28;20578;-58
2023/06/13 10:13:01;;;;;;;6.63;6.03;;;22.20;99.90;;;22.41;63.57;94514.69;5049461;28;20455;-59
2023/06/13 10:15:34;;;;;;;10.70;6.60;;;22.10;99.90;;;22.34;64.35;94519.31;5048888;28;20475;-58